createdAt,value
2022-11-28T00:02:21.226Z,5.76
2022-11-28T00:05:06.671Z,5.78
2022-11-28T00:07:51.739Z,5.79
2022-11-28T00:10:40.773Z,5.81
2022-11-28T00:13:25.971Z,5.78
2022-11-28T00:16:21.190Z,5.77
2022-11-28T00:19:06.610Z,5.76
2022-11-28T00:21:51.865Z,5.78
2022-11-28T00:24:37.023Z,5.74
2022-11-28T00:27:22.035Z,5.72
2022-11-28T00:30:07.883Z,5.73
2022-11-28T00:32:52.854Z,5.71
2022-11-28T00:35:37.873Z,5.69
2022-11-28T00:38:22.870Z,5.68
2022-11-28T00:41:11.657Z,5.63
2022-11-28T00:43:57.418Z,5.58
2022-11-28T00:46:42.678Z,5.63
2022-11-28T00:49:27.853Z,5.59
2022-11-28T00:52:13.173Z,5.59
2022-11-28T00:54:58.059Z,5.55
2022-11-28T00:57:43.135Z,5.65
2022-11-28T01:00:28.080Z,5.59
2022-11-28T01:03:13.222Z,5.61
2022-11-28T01:05:58.538Z,5.61
2022-11-28T01:08:43.539Z,5.60
2022-11-28T01:11:29.350Z,5.67
2022-11-28T01:14:15.059Z,5.72
2022-11-28T01:16:59.859Z,5.63
2022-11-28T01:19:44.935Z,5.68
2022-11-28T01:22:29.863Z,5.64
2022-11-28T01:25:14.996Z,5.75
2022-11-28T01:28:00.079Z,5.64
2022-11-28T01:30:45.144Z,5.75
2022-11-28T01:33:29.966Z,5.71
2022-11-28T01:36:19.506Z,5.79
2022-11-28T01:39:04.745Z,5.76
2022-11-28T01:41:49.794Z,5.69
2022-11-28T01:44:34.865Z,5.71
2022-11-28T01:47:27.703Z,5.66
2022-11-28T01:50:12.932Z,5.72
2022-11-28T01:53:01.506Z,5.71
2022-11-28T01:55:56.978Z,5.71
2022-11-28T01:58:46.472Z,5.71
2022-11-28T02:01:31.690Z,5.67
2022-11-28T02:04:16.863Z,5.59
2022-11-28T02:07:01.953Z,5.61
2022-11-28T02:09:47.060Z,5.65
2022-11-28T02:12:51.197Z,5.64
2022-11-28T02:16:00.720Z,5.68
2022-11-28T02:19:21.664Z,5.69
2022-11-28T02:22:21.822Z,5.67
2022-11-28T02:25:47.770Z,5.71
2022-11-28T02:28:38.820Z,5.71
2022-11-28T02:32:03.465Z,5.63
2022-11-28T02:34:57.054Z,5.57
2022-11-28T02:37:52.242Z,5.61
2022-11-28T02:40:37.418Z,5.68
2022-11-28T02:43:33.184Z,5.73
2022-11-28T02:46:28.289Z,5.71
2022-11-28T02:49:22.354Z,5.66
2022-11-28T02:52:12.834Z,5.68
2022-11-28T02:54:59.484Z,5.76
2022-11-28T02:57:50.205Z,5.72
2022-11-28T03:00:38.214Z,5.82
2022-11-28T03:03:28.800Z,5.81
2022-11-28T03:06:38.511Z,5.74
2022-11-28T03:09:34.895Z,5.76
2022-11-28T03:12:30.246Z,5.85
2022-11-28T03:15:19.895Z,5.86
2022-11-28T03:18:14.511Z,5.74
2022-11-28T03:21:21.836Z,5.72
2022-11-28T03:24:26.511Z,5.72
2022-11-28T03:27:30.585Z,5.77
2022-11-28T03:30:37.833Z,5.70
2022-11-28T03:33:27.422Z,5.66
2022-11-28T03:36:18.142Z,5.76
2022-11-28T03:39:10.987Z,5.77
2022-11-28T03:42:03.168Z,5.72
2022-11-28T03:44:54.304Z,5.79
2022-11-28T03:47:54.754Z,5.75
2022-11-28T03:50:45.606Z,5.66
2022-11-28T03:53:38.564Z,5.59
2022-11-28T03:56:33.563Z,5.65
2022-11-28T03:59:35.784Z,5.71
2022-11-28T04:02:33.406Z,5.63
2022-11-28T04:05:24.790Z,5.60
2022-11-28T04:08:30.883Z,5.61
2022-11-28T04:11:20.966Z,5.63
2022-11-28T04:14:26.337Z,5.71
2022-11-28T04:17:38.065Z,5.55
2022-11-28T04:20:55.214Z,5.59
2022-11-28T04:23:43.899Z,5.53
2022-11-28T04:26:33.642Z,5.48
2022-11-28T04:29:23.317Z,5.43
2022-11-28T04:32:10.274Z,5.55
2022-11-28T04:35:05.033Z,5.54
2022-11-28T04:37:51.415Z,5.45
2022-11-28T04:40:50.133Z,5.49
2022-11-28T04:43:43.021Z,5.55
2022-11-28T04:46:35.520Z,5.50
2022-11-28T04:49:21.397Z,5.49
2022-11-28T04:52:29.395Z,5.49
2022-11-28T04:55:38.087Z,5.51
2022-11-28T04:58:34.191Z,5.53
2022-11-28T05:01:25.479Z,5.58
2022-11-28T05:04:10.856Z,5.54
2022-11-28T05:07:06.048Z,5.55
2022-11-28T05:09:51.425Z,5.52
2022-11-28T05:12:36.509Z,5.55
2022-11-28T05:15:21.517Z,5.56
2022-11-28T05:18:06.811Z,5.55
2022-11-28T05:20:52.103Z,5.56
2022-11-28T05:23:43.127Z,5.61
2022-11-28T05:26:32.069Z,5.59
2022-11-28T05:29:17.336Z,5.56
2022-11-28T05:32:02.560Z,5.56
2022-11-28T05:34:47.503Z,5.59
2022-11-28T05:37:32.533Z,5.58
2022-11-28T05:40:17.775Z,5.59
2022-11-28T05:43:02.623Z,5.60
2022-11-28T05:45:47.699Z,5.56
2022-11-28T05:48:32.588Z,5.55
2022-11-28T05:51:19.802Z,5.51
2022-11-28T05:54:05.466Z,5.56
2022-11-28T05:56:50.695Z,5.53
2022-11-28T05:59:35.991Z,5.51
2022-11-28T06:02:21.383Z,5.59
2022-11-28T06:05:21.329Z,5.56
2022-11-28T06:08:12.310Z,5.56
2022-11-28T06:10:58.269Z,5.54
2022-11-28T06:13:44.634Z,5.56
2022-11-28T06:16:30.676Z,5.45
2022-11-28T06:19:15.654Z,5.56
2022-11-28T06:22:01.648Z,5.54
2022-11-28T06:24:46.800Z,5.57
2022-11-28T06:27:31.707Z,5.37
2022-11-28T06:30:17.206Z,5.50
2022-11-28T06:33:02.244Z,5.52
2022-11-28T06:35:47.377Z,5.53
2022-11-28T06:38:33.004Z,5.50
2022-11-28T06:41:19.411Z,5.50
2022-11-28T06:44:04.432Z,5.48
2022-11-28T06:46:49.533Z,5.55
2022-11-28T06:49:35.581Z,5.51
2022-11-28T06:52:20.527Z,5.53
2022-11-28T06:55:05.749Z,5.57
2022-11-28T06:57:50.609Z,5.54
2022-11-28T07:00:36.472Z,5.51
2022-11-28T07:03:21.653Z,5.48
2022-11-28T07:06:07.622Z,5.54
2022-11-28T07:08:53.480Z,5.49
2022-11-28T07:11:41.854Z,5.53
2022-11-28T07:14:27.208Z,5.53
2022-11-28T07:17:11.991Z,5.54
2022-11-28T07:19:57.178Z,5.53
2022-11-28T07:22:43.582Z,5.53
2022-11-28T07:25:28.760Z,5.57
2022-11-28T07:28:13.934Z,5.59
2022-11-28T07:31:05.327Z,5.54
2022-11-28T07:33:51.072Z,5.58
2022-11-28T07:36:36.685Z,5.54
2022-11-28T07:39:21.838Z,5.55
2022-11-28T07:42:06.907Z,5.64
2022-11-28T07:44:51.959Z,5.61
2022-11-28T07:47:37.158Z,5.59
2022-11-28T07:50:22.182Z,5.61
2022-11-28T07:53:07.531Z,5.59
2022-11-28T07:55:52.535Z,5.58
2022-11-28T07:58:38.859Z,5.58
2022-11-28T08:01:28.101Z,5.64
2022-11-28T08:04:13.055Z,5.68
2022-11-28T08:06:58.065Z,5.71
2022-11-28T08:09:43.515Z,5.74
2022-11-28T08:12:28.695Z,5.70
2022-11-28T08:15:13.744Z,5.70
2022-11-28T08:17:58.912Z,5.67
2022-11-28T08:20:43.993Z,5.73
2022-11-28T08:23:28.849Z,5.73
2022-11-28T08:26:15.793Z,5.72
2022-11-28T08:29:02.571Z,5.73
2022-11-28T08:31:47.509Z,5.78
2022-11-28T08:34:32.378Z,5.77
2022-11-28T08:37:17.430Z,5.86
2022-11-28T08:40:02.772Z,5.81
2022-11-28T08:42:47.690Z,5.86
2022-11-28T08:45:32.631Z,5.78
2022-11-28T08:48:17.807Z,5.75
2022-11-28T08:51:03.783Z,5.83
2022-11-28T08:53:49.738Z,5.82
2022-11-28T08:56:35.457Z,5.95
2022-11-28T08:59:20.605Z,5.94
2022-11-28T09:02:05.785Z,5.91
2022-11-28T09:04:50.646Z,5.95
2022-11-28T09:07:35.685Z,6.04
2022-11-28T09:10:21.054Z,5.97
2022-11-28T09:13:07.008Z,5.97
2022-11-28T09:15:53.762Z,5.97
2022-11-28T09:18:38.910Z,6.09
2022-11-28T09:21:24.013Z,6.13
2022-11-28T09:24:09.609Z,6.08
2022-11-28T09:26:54.409Z,6.11
2022-11-28T09:29:39.462Z,6.08
2022-11-28T09:32:24.710Z,6.27
2022-11-28T09:35:09.912Z,6.29
2022-11-28T09:37:55.169Z,6.28
2022-11-28T09:40:43.313Z,6.32
2022-11-28T09:43:28.200Z,6.32
2022-11-28T09:46:22.661Z,6.30
2022-11-28T09:49:21.958Z,6.27
2022-11-28T09:52:26.616Z,6.29
2022-11-28T09:55:17.626Z,6.42
2022-11-28T09:58:12.485Z,6.42
2022-11-28T10:01:30.095Z,6.47
2022-11-28T10:04:26.474Z,6.48
2022-11-28T10:07:55.008Z,6.44
2022-11-28T10:11:01.721Z,6.51
2022-11-28T10:14:15.586Z,6.62
2022-11-28T10:17:05.639Z,6.58
2022-11-28T10:19:57.289Z,6.67
2022-11-28T10:22:53.879Z,6.72
2022-11-28T10:25:43.879Z,6.62
2022-11-28T10:28:34.507Z,6.73
2022-11-28T10:31:34.749Z,6.80
2022-11-28T10:34:28.228Z,6.60
2022-11-28T10:37:24.619Z,6.75
2022-11-28T10:40:28.070Z,6.71
2022-11-28T10:43:28.888Z,6.80
2022-11-28T10:46:55.478Z,6.83
2022-11-28T10:50:04.427Z,6.86
2022-11-28T10:53:14.698Z,6.99
2022-11-28T10:56:11.717Z,7.07
2022-11-28T10:59:31.061Z,6.76
2022-11-28T11:02:32.155Z,6.79
2022-11-28T11:05:24.278Z,6.91
2022-11-28T11:08:20.319Z,6.87
2022-11-28T11:11:37.011Z,6.90
2022-11-28T11:14:33.865Z,6.97
2022-11-28T11:17:36.299Z,6.85
2022-11-28T11:20:37.825Z,6.91
2022-11-28T11:23:23.082Z,6.98
2022-11-28T11:26:19.570Z,6.96
2022-11-28T11:29:05.455Z,6.95
2022-11-28T11:31:53.069Z,6.96
2022-11-28T11:34:44.107Z,6.92
2022-11-28T11:37:37.641Z,6.91
2022-11-28T11:40:28.986Z,6.81
2022-11-28T11:43:29.027Z,6.76
2022-11-28T11:46:15.832Z,6.88
2022-11-28T11:49:00.771Z,6.76
2022-11-28T11:51:56.180Z,6.92
2022-11-28T11:55:07.015Z,6.97
2022-11-28T11:57:54.479Z,6.90
2022-11-28T12:00:40.369Z,6.91
2022-11-28T12:03:48.305Z,6.98
2022-11-28T12:06:55.146Z,6.99
2022-11-28T12:09:49.246Z,7.04
2022-11-28T12:12:38.366Z,7.10
2022-11-28T12:15:41.666Z,7.06
2022-11-28T12:18:49.070Z,7.15
2022-11-28T12:21:49.450Z,7.17
2022-11-28T12:24:50.541Z,7.29
2022-11-28T12:27:52.746Z,7.37
2022-11-28T12:31:08.347Z,7.40
2022-11-28T12:34:13.369Z,7.35
2022-11-28T12:37:16.133Z,7.37
2022-11-28T12:40:18.866Z,7.41
2022-11-28T12:43:30.281Z,7.46
2022-11-28T12:46:36.628Z,7.49
2022-11-28T12:49:52.125Z,7.38
2022-11-28T12:52:55.944Z,7.41
2022-11-28T12:55:51.047Z,7.31
2022-11-28T12:58:58.579Z,7.18
2022-11-28T13:01:55.192Z,7.29
2022-11-28T13:04:53.965Z,7.40
2022-11-28T13:08:05.890Z,7.44
2022-11-28T13:11:27.818Z,7.30
2022-11-28T13:14:31.893Z,7.26
2022-11-28T13:17:55.622Z,7.31
2022-11-28T13:21:05.215Z,7.32
2022-11-28T13:24:06.600Z,7.24
2022-11-28T13:27:09.280Z,7.40
2022-11-28T13:30:13.010Z,7.57
2022-11-28T13:33:07.081Z,7.67
2022-11-28T13:35:52.754Z,7.66
2022-11-28T13:39:12.961Z,7.74
2022-11-28T13:42:28.875Z,7.56
2022-11-28T13:45:35.795Z,7.67
2022-11-28T13:52:18.076Z,7.54
2022-11-28T13:55:03.307Z,7.67
2022-11-28T13:57:48.746Z,7.65
2022-11-28T14:00:34.082Z,7.67
2022-11-28T14:03:20.592Z,7.67
2022-11-28T14:06:07.113Z,7.70
2022-11-28T14:09:18.763Z,7.74
2022-11-28T14:12:22.117Z,7.75
2022-11-28T14:15:40.744Z,7.58
2022-11-28T14:18:56.660Z,7.46
2022-11-28T14:21:45.177Z,7.44
2022-11-28T14:24:55.205Z,7.44
2022-11-28T14:27:47.040Z,7.54
2022-11-28T14:30:38.457Z,7.60
2022-11-28T14:33:37.451Z,7.62
2022-11-28T14:36:24.635Z,7.65
2022-11-28T14:39:30.935Z,7.58
2022-11-28T14:42:36.780Z,7.57
2022-11-28T14:45:32.406Z,7.59
2022-11-28T14:48:32.172Z,7.61
2022-11-28T14:51:17.150Z,7.51
2022-11-28T14:54:02.385Z,7.54
2022-11-28T14:56:49.562Z,7.59
2022-11-28T14:59:39.809Z,7.64
2022-11-28T15:02:45.369Z,7.61
2022-11-28T15:05:37.772Z,7.66
2022-11-28T15:08:37.166Z,7.66
2022-11-28T15:11:40.963Z,7.67
2022-11-28T15:14:28.593Z,7.66
2022-11-28T15:17:14.770Z,7.60
2022-11-28T15:20:08.917Z,7.62
2022-11-28T15:22:54.289Z,7.65
2022-11-28T15:25:39.784Z,7.65
2022-11-28T15:28:28.210Z,7.65
2022-11-28T15:31:21.558Z,7.60
2022-11-28T15:34:10.100Z,7.62
2022-11-28T15:37:00.717Z,7.62
2022-11-28T15:39:48.030Z,7.61
2022-11-28T15:42:35.362Z,7.64
2022-11-28T15:45:25.796Z,7.59
2022-11-28T15:48:27.594Z,7.58
2022-11-28T15:51:26.793Z,7.58
2022-11-28T15:54:35.110Z,7.56
2022-11-28T15:57:25.862Z,7.58
2022-11-28T16:00:19.163Z,7.58
2022-11-28T16:03:05.641Z,7.53
2022-11-28T16:05:53.102Z,7.57
2022-11-28T16:08:48.962Z,7.58
2022-11-28T16:11:35.589Z,7.57
2022-11-28T16:14:28.756Z,7.55
2022-11-28T16:17:25.717Z,7.53
2022-11-28T16:20:34.611Z,7.51
2022-11-28T16:23:27.327Z,7.50
2022-11-28T16:26:36.094Z,7.51
2022-11-28T16:29:24.247Z,7.49
2022-11-28T16:32:21.601Z,7.49
2022-11-28T16:35:12.187Z,7.48
2022-11-28T16:38:25.898Z,7.46
2022-11-28T16:41:21.032Z,7.46
2022-11-28T16:44:11.542Z,7.45
2022-11-28T16:46:57.976Z,7.38
2022-11-28T16:50:05.211Z,7.38
2022-11-28T16:52:55.353Z,7.34
2022-11-28T16:55:41.258Z,7.38
2022-11-28T16:58:26.031Z,7.35
2022-11-28T17:01:11.203Z,7.33
2022-11-28T17:03:57.617Z,7.32
2022-11-28T17:06:42.653Z,7.29
2022-11-28T17:09:27.520Z,7.31
2022-11-28T17:12:24.798Z,7.36
2022-11-28T17:15:21.713Z,7.37
2022-11-28T17:18:06.760Z,7.37
2022-11-28T17:20:51.773Z,7.37
2022-11-28T17:23:36.922Z,7.35
2022-11-28T17:26:21.729Z,7.36
2022-11-28T17:29:10.809Z,7.38
2022-11-28T17:31:58.638Z,7.37
2022-11-28T17:34:45.914Z,7.35
2022-11-28T17:37:31.062Z,7.31
2022-11-28T17:40:36.406Z,7.30
2022-11-28T17:43:22.134Z,7.31
2022-11-28T17:46:07.521Z,7.32
2022-11-28T17:48:52.465Z,7.27
2022-11-28T17:51:37.970Z,7.30
2022-11-28T17:54:24.940Z,7.30
2022-11-28T17:57:09.890Z,7.30
2022-11-28T17:59:55.024Z,7.30
2022-11-28T18:02:40.568Z,7.34
2022-11-28T18:05:25.770Z,7.37
2022-11-28T18:08:11.027Z,7.38
2022-11-28T18:11:22.018Z,7.39
2022-11-28T18:14:07.168Z,7.40
2022-11-28T18:16:52.373Z,7.39
2022-11-28T18:19:37.568Z,7.39
2022-11-28T18:22:22.427Z,7.38
2022-11-28T18:25:08.192Z,7.37
2022-11-28T18:27:53.463Z,7.38
2022-11-28T18:30:46.585Z,7.38
2022-11-28T18:33:34.241Z,7.35
2022-11-28T18:36:22.240Z,7.23
2022-11-28T18:39:11.856Z,7.27
2022-11-28T18:41:59.786Z,7.32
2022-11-28T18:44:44.743Z,7.35
2022-11-28T18:47:29.737Z,7.37
2022-11-28T18:50:15.088Z,7.35
2022-11-28T18:53:00.689Z,7.38
2022-11-28T18:55:45.658Z,7.37
2022-11-28T18:58:34.646Z,7.27
2022-11-28T19:01:30.024Z,7.30
2022-11-28T19:04:16.651Z,7.28
2022-11-28T19:07:03.547Z,7.35
2022-11-28T19:09:48.547Z,7.36
2022-11-28T19:12:33.723Z,7.36
2022-11-28T19:15:18.834Z,7.35
2022-11-28T19:18:04.126Z,7.32
2022-11-28T19:20:49.258Z,7.31
2022-11-28T19:23:34.382Z,7.25
2022-11-28T19:26:21.686Z,7.26
2022-11-28T19:29:06.929Z,7.24
2022-11-28T19:31:51.865Z,7.25
2022-11-28T19:34:36.841Z,7.20
2022-11-28T19:37:21.689Z,7.15
2022-11-28T19:40:07.558Z,7.16
2022-11-28T19:42:52.302Z,7.14
2022-11-28T19:45:37.303Z,7.19
2022-11-28T19:48:22.723Z,7.21
2022-11-28T19:51:09.731Z,7.22
2022-11-28T19:53:59.874Z,7.22
2022-11-28T19:56:48.711Z,7.22
2022-11-28T19:59:33.742Z,7.18
2022-11-28T20:02:21.433Z,7.17
2022-11-28T20:05:06.442Z,7.11
2022-11-28T20:07:55.577Z,7.05
2022-11-28T20:10:43.695Z,7.02
2022-11-28T20:13:28.592Z,7.00
2022-11-28T20:16:17.456Z,6.98
2022-11-28T20:19:03.760Z,6.96
2022-11-28T20:21:48.509Z,6.97
2022-11-28T20:24:33.424Z,6.96
2022-11-28T20:27:18.514Z,6.96
2022-11-28T20:30:06.518Z,6.91
2022-11-28T20:32:54.077Z,6.78
2022-11-28T20:35:39.172Z,6.83
2022-11-28T20:38:24.042Z,6.87
2022-11-28T20:41:11.506Z,6.84
2022-11-28T20:43:58.326Z,6.78
2022-11-28T20:46:46.119Z,6.75
2022-11-28T20:49:31.373Z,6.69
2022-11-28T20:52:16.399Z,6.64
2022-11-28T20:55:01.623Z,6.66
2022-11-28T20:57:46.497Z,6.63
2022-11-28T21:00:31.380Z,6.61
2022-11-28T21:03:16.418Z,6.58
2022-11-28T21:06:01.852Z,6.54
2022-11-28T21:08:46.899Z,6.52
2022-11-28T21:11:55.676Z,6.50
2022-11-28T21:14:36.709Z,6.44
2022-11-28T21:17:22.205Z,6.39
2022-11-28T21:20:08.047Z,6.34
2022-11-28T21:22:52.885Z,6.38
2022-11-28T21:25:39.543Z,6.45
2022-11-28T21:28:24.458Z,6.49
2022-11-28T21:31:12.802Z,6.48
2022-11-28T21:33:58.794Z,6.53
2022-11-28T21:36:43.908Z,6.54
2022-11-28T21:39:28.989Z,6.56
2022-11-28T21:42:18.920Z,6.55
2022-11-28T21:45:05.700Z,6.55
2022-11-28T21:47:51.385Z,6.57
2022-11-28T21:50:36.384Z,6.59
2022-11-28T21:53:21.396Z,6.67
2022-11-28T21:56:06.596Z,6.68
2022-11-28T21:58:51.644Z,6.72
2022-11-28T22:01:36.830Z,6.71
2022-11-28T22:04:21.930Z,6.75
2022-11-28T22:07:07.012Z,6.79
2022-11-28T22:09:51.845Z,6.80
2022-11-28T22:12:36.963Z,6.72
2022-11-28T22:15:22.067Z,6.73
2022-11-28T22:18:06.929Z,6.75
2022-11-28T22:20:53.217Z,6.79
2022-11-28T22:23:39.405Z,6.81
2022-11-28T22:26:24.475Z,6.82
2022-11-28T22:29:09.589Z,6.77
2022-11-28T22:31:54.986Z,6.67
2022-11-28T22:34:40.367Z,6.63
2022-11-28T22:37:25.281Z,6.55
2022-11-28T22:40:11.035Z,6.62
2022-11-28T22:42:56.645Z,6.63
2022-11-28T22:45:41.772Z,6.63
2022-11-28T22:48:28.803Z,6.58
2022-11-28T22:51:17.549Z,6.60
2022-11-28T22:54:03.060Z,6.60
2022-11-28T22:56:48.240Z,6.62
2022-11-28T22:59:35.053Z,6.63
2022-11-28T23:02:20.213Z,6.62
2022-11-28T23:05:05.218Z,6.59
2022-11-28T23:07:50.160Z,6.59
2022-11-28T23:10:37.888Z,6.59
2022-11-28T23:13:23.056Z,6.63
2022-11-28T23:16:14.328Z,6.63
2022-11-28T23:19:01.631Z,6.69
2022-11-28T23:21:49.033Z,6.72
2022-11-28T23:24:33.784Z,6.70
2022-11-28T23:27:19.047Z,6.69
2022-11-28T23:30:04.809Z,6.71
2022-11-28T23:32:49.659Z,6.74
2022-11-28T23:35:34.614Z,6.77
2022-11-28T23:38:19.508Z,6.80
2022-11-28T23:41:04.639Z,6.79
2022-11-28T23:43:50.142Z,6.74
2022-11-28T23:46:35.615Z,6.79
2022-11-28T23:49:20.641Z,6.85
2022-11-28T23:52:05.863Z,6.83
2022-11-28T23:54:51.034Z,6.82
2022-11-28T23:57:36.234Z,6.91
